Time;durP1;ratioP1;P1;durP2;ratioP2;P2;SDS_P1;SDS_P2;PMS_P1;PMS_P2;Temp;Humidity;BMP_temperature;BMP_pressure;BME280_temperature;BME280_humidity;BME280_pressure;Samples;Min_cycle;Max_cycle;Signal;HPM_P1;HPM_P2
2023/04/01 00:02:32;;;;;;;;;;;14.60;53.90;;;13.31;55.41;99320.22;12262356;19;19934;-90
2023/04/01 00:06:34;;;;;;;;;;;14.50;53.80;;;13.26;55.38;99310.16;12259137;19;19918;-90
2023/04/01 00:10:36;;;;;;;;;;;14.50;53.90;;;13.35;55.43;99331.28;12260243;19;19938;-90
2023/04/01 00:14:37;;;;;;;;;;;14.60;53.90;;;13.35;55.45;99334.72;12262880;19;19930;-90
2023/04/01 00:18:39;;;;;;;;;;;14.60;53.90;;;13.25;55.36;99312.88;12259413;19;19911;-90
2023/04/01 00:22:41;;;;;;;;;;;14.50;53.90;;;13.22;55.51;99307.91;12260195;19;19915;-90
2023/04/01 00:26:44;;;;;;;;;;;14.50;53.90;;;13.24;55.34;99309.44;12255806;19;19911;-90
2023/04/01 00:30:48;;;;;;;;;;;14.50;53.90;;;13.27;55.39;99324.91;12254807;19;19918;-89
2023/04/01 00:34:51;;;;;;;;;;;14.50;53.90;;;13.33;55.42;99327.94;12257082;19;20269;-90
2023/04/01 00:38:53;;;;;;;;;;;14.50;53.90;;;13.22;55.47;99318.38;12253390;19;20603;-90
2023/04/01 00:42:55;;;;;;;;;;;14.50;53.90;;;13.28;55.39;99329.22;12258087;19;19910;-89
2023/04/01 00:46:56;;;;;;;;;;;14.50;53.90;;;13.31;55.47;99332.50;12254687;19;19919;-90
2023/04/01 00:51:05;;;;;;;;;;;14.50;53.90;;;13.21;55.37;99314.13;12260260;19;20011;-90
2023/04/01 00:55:08;;;;;;;;;;;14.50;53.90;;;13.23;55.49;99320.88;12257966;19;19930;-90
2023/04/01 00:59:14;;;;;;;;;;;14.50;53.90;;;13.19;55.50;99314.25;12253511;19;19918;-90
2023/04/01 01:03:15;;;;;;;;;;;14.50;53.90;;;13.18;55.47;99309.97;12256796;19;19922;-89
2023/04/01 01:07:31;;;;;;;;;;;14.50;54.20;;;13.23;55.58;99322.66;12254727;19;19918;-90
2023/04/01 01:11:53;;;;;;;;;;;14.50;53.90;;;13.02;55.63;99291.34;12257991;19;19929;-90
2023/04/01 01:16:13;;;;;;;;;;;14.50;53.90;;;13.23;55.67;99326.13;12254726;19;20683;-90
2023/04/01 01:20:36;;;;;;;;;;;14.40;53.90;;;13.24;55.58;99330.41;12253173;19;19927;-90
2023/04/01 01:25:02;;;;;;;;;;;14.40;53.90;;;13.15;55.59;99319.88;12254787;19;19934;-89
2023/04/01 01:29:35;;;;;;;;;;;14.40;53.90;;;13.22;55.60;99334.94;12250878;19;19986;-90
2023/04/01 01:34:19;;;;;;;;;;;14.40;54.00;;;13.11;55.64;99316.72;12254656;19;20269;-89
2023/04/01 01:38:24;;;;;;;;;;;14.40;54.00;;;13.12;55.67;99313.13;12246726;19;19923;-89
2023/04/01 01:42:37;;;;;;;;;;;14.40;54.00;;;13.04;55.70;99294.63;12253431;19;20307;-89
2023/04/01 01:46:39;;;;;;;;;;;14.40;54.00;;;12.90;55.56;99287.16;12251530;19;20256;-89
2023/04/01 01:50:42;;;;;;;;;;;14.40;54.00;;;13.06;55.67;99309.25;12253321;19;19911;-89
2023/04/01 01:54:48;;;;;;;;;;;14.40;54.00;;;13.22;55.69;99344.59;12252388;19;19936;-90
2023/04/01 01:59:20;;;;;;;;;;;14.40;54.00;;;13.17;55.63;99342.38;12241535;19;20385;-90
2023/04/01 02:03:25;;;;;;;;;;;14.40;54.00;;;12.80;55.74;99289.78;12251759;19;19911;-89
2023/04/01 02:07:30;;;;;;;;;;;14.40;54.00;;;13.18;55.67;99344.06;12250719;19;19922;-89
2023/04/01 02:11:38;;;;;;;;;;;14.40;54.10;;;13.11;55.68;99327.19;12252287;19;20317;-89
2023/04/01 02:15:42;;;;;;;;;;;14.40;54.10;;;13.16;55.62;99345.97;12252893;19;19927;-89
2023/04/01 02:19:57;;;;;;;;;;;14.40;54.10;;;13.11;55.72;99332.44;12251498;19;19915;-89
2023/04/01 02:24:03;;;;;;;;;;;14.40;54.10;;;13.07;55.51;99331.91;12251332;19;19926;-89
2023/04/01 02:28:07;;;;;;;;;;;14.40;54.10;;;12.94;55.88;99307.72;12248382;19;20253;-89
2023/04/01 02:32:09;;;;;;;;;;;14.40;54.10;;;13.09;55.71;99334.38;12252976;19;19911;-89
2023/04/01 02:36:15;;;;;;;;;;;14.40;54.10;;;13.09;55.82;99336.16;12252039;19;19918;-90
2023/04/01 02:40:17;;;;;;;;;;;14.40;54.10;;;13.13;55.68;99351.50;12252116;19;19915;-89
2023/04/01 02:44:19;;;;;;;;;;;14.40;54.20;;;13.15;55.77;99354.81;12252779;19;20266;-89
2023/04/01 02:48:21;;;;;;;;;;;14.30;54.10;;;12.84;55.75;99315.56;12249080;19;19953;-89
2023/04/01 02:52:27;;;;;;;;;;;14.40;54.20;;;13.14;55.76;99352.31;12248699;19;19918;-90
2023/04/01 02:56:30;;;;;;;;;;;14.40;54.20;;;13.07;55.84;99344.19;12250148;19;19923;-90
2023/04/01 03:00:32;;;;;;;;;;;14.40;54.20;;;12.95;55.76;99334.75;12250873;19;20032;-90
2023/04/01 03:04:34;;;;;;;;;;;14.40;54.20;;;12.93;55.71;99331.44;12251566;19;19918;-90
2023/04/01 03:08:35;;;;;;;;;;;14.40;54.20;;;13.15;55.83;99360.06;12247029;19;19960;-90
2023/04/01 03:12:37;;;;;;;;;;;14.40;54.20;;;13.14;55.81;99358.38;12250005;19;20343;-90
2023/04/01 03:16:39;;;;;;;;;;;14.40;54.20;;;13.09;55.79;99351.88;12249158;19;19928;-90
2023/04/01 03:20:41;;;;;;;;;;;14.40;54.20;;;13.11;55.85;99357.84;12250705;19;19955;-91
2023/04/01 03:24:43;;;;;;;;;;;14.40;54.20;;;12.96;55.67;99339.03;12250199;19;20455;-90
2023/04/01 03:28:45;;;;;;;;;;;14.40;54.20;;;13.06;55.93;99351.19;12246490;19;19919;-90
2023/04/01 03:32:47;;;;;;;;;;;14.40;54.20;;;13.11;55.90;99366.53;12248150;19;19924;-90
2023/04/01 03:36:49;;;;;;;;;;;14.40;54.20;;;12.95;55.83;99340.81;12246456;19;19959;-90
2023/04/01 03:40:50;;;;;;;;;;;14.40;54.20;;;13.20;55.92;99384.03;12246097;19;19915;-90
2023/04/01 03:44:51;;;;;;;;;;;14.50;54.20;;;13.20;55.84;99384.03;12246640;19;19922;-90
2023/04/01 03:48:53;;;;;;;;;;;14.40;54.20;;;13.07;55.83;99384.31;12242733;19;19929;-90
2023/04/01 03:52:55;;;;;;;;;;;14.40;54.20;;;13.15;55.87;99395.91;12245710;19;19919;-90
2023/04/01 03:56:57;;;;;;;;;;;14.40;54.10;;;13.10;55.87;99393.69;12244213;19;19919;-90
2023/04/01 04:00:59;;;;;;;;;;;14.40;54.10;;;12.99;55.90;99386.78;12245744;19;19927;-90
2023/04/01 04:05:01;;;;;;;;;;;14.40;54.10;;;13.01;55.83;99392.69;12252532;19;19907;-90
2023/04/01 04:09:03;;;;;;;;;;;14.40;54.20;;;13.03;55.83;99401.25;12254607;19;19974;-90
2023/04/01 04:13:05;;;;;;;;;;;14.30;54.20;;;12.91;55.96;99378.75;12256881;19;19921;-90
2023/04/01 04:17:15;;;;;;;;;;;14.30;54.20;;;12.99;55.99;99399.06;12255922;19;19926;-90
2023/04/01 04:21:19;;;;;;;;;;;14.30;54.30;;;13.03;56.05;99405.66;12257997;19;19911;-90
2023/04/01 04:25:21;;;;;;;;;;;14.30;54.30;;;13.03;55.94;99408.28;12256769;19;19922;-90
2023/04/01 04:29:22;;;;;;;;;;;14.30;54.30;;;12.87;55.96;99376.53;12252281;19;20311;-90
2023/04/01 04:33:25;;;;;;;;;;;14.30;54.40;;;12.98;56.00;99400.81;12255846;19;20011;-90
2023/04/01 04:37:26;;;;;;;;;;;14.30;54.40;;;12.84;56.14;99378.44;12255374;19;19915;-90
2023/04/01 04:41:28;;;;;;;;;;;14.30;54.40;;;13.12;56.07;99425.81;12256352;19;19919;-90
2023/04/01 04:45:31;;;;;;;;;;;14.30;54.40;;;12.80;56.06;99377.06;12255907;19;20249;-90
2023/04/01 04:49:32;;;;;;;;;;;14.30;54.40;;;13.04;56.07;99417.81;12251625;19;19918;-90
2023/04/01 04:53:40;;;;;;;;;;;14.30;54.40;;;13.03;56.08;99418.78;12257548;19;20285;-90
2023/04/01 04:57:42;;;;;;;;;;;14.40;54.40;;;13.12;56.03;99423.22;12255247;19;19955;-90
2023/04/01 05:01:43;;;;;;;;;;;14.30;54.40;;;12.89;56.05;99393.75;12256698;19;19942;-90
2023/04/01 05:05:53;;;;;;;;;;;14.30;54.40;;;13.02;56.13;99412.72;12254416;19;20238;-90
2023/04/01 05:09:55;;;;;;;;;;;14.40;54.40;;;13.11;56.18;99432.03;12250644;19;19923;-90
2023/04/01 05:13:57;;;;;;;;;;;14.40;54.40;;;13.09;56.12;99430.50;12252062;19;20599;-90
2023/04/01 05:17:58;;;;;;;;;;;14.40;54.40;;;13.08;56.22;99429.69;12248707;19;19942;-90
2023/04/01 05:22:00;;;;;;;;;;;14.40;54.40;;;13.11;56.10;99439.91;12252947;19;19919;-88
2023/04/01 05:26:09;;;;;;;;;;;14.40;54.50;;;13.07;56.23;99428.88;12260090;19;19907;-87
2023/04/01 05:30:11;;;;;;;;;;;14.40;54.40;;;13.12;56.09;99440.72;12250669;19;19978;-87
2023/04/01 05:34:18;;;;;;;;;;;14.40;54.50;;;13.13;56.11;99440.63;12250533;19;20012;-87
2023/04/01 05:38:20;;;;;;;;;;;14.40;54.50;;;12.90;56.08;99410.31;12247622;19;20325;-88
2023/04/01 05:42:21;;;;;;;;;;;14.40;54.50;;;13.11;56.21;99453.00;12250474;19;19956;-87
2023/04/01 05:46:23;;;;;;;;;;;14.40;54.50;;;12.84;56.10;99409.06;12248358;19;19930;-87
2023/04/01 05:50:31;;;;;;;;;;;14.40;54.50;;;12.91;56.23;99425.06;12248847;19;20440;-88
2023/04/01 05:54:33;;;;;;;;;;;14.40;54.50;;;13.16;56.22;99468.34;12250958;19;19919;-87
2023/04/01 05:58:36;;;;;;;;;;;14.40;54.60;;;13.10;56.13;99464.47;12244359;19;19915;-87
2023/04/01 06:02:38;;;;;;;;;;;14.40;54.60;;;13.12;56.21;99470.38;12249550;19;19920;-88
2023/04/01 06:06:41;;;;;;;;;;;14.40;54.60;;;13.03;56.22;99461.53;12247573;19;19919;-87
2023/04/01 06:11:06;;;;;;;;;;;14.40;54.70;;;13.17;56.33;99485.72;12250105;19;19925;-88
2023/04/01 06:15:43;;;;;;;;;;;14.40;54.70;;;13.16;56.41;99482.28;12248874;19;19955;-88
2023/04/01 06:20:28;;;;;;;;;;;14.40;54.70;;;13.20;56.40;99493.31;12247840;19;19926;-89
2023/04/01 06:25:01;;;;;;;;;;;14.40;54.80;;;13.20;56.40;99499.38;12243914;19;19939;-90
2023/04/01 06:29:34;;;;;;;;;;;14.40;54.80;;;13.21;56.41;99498.44;12243665;19;19911;-89
2023/04/01 06:33:42;;;;;;;;;;;14.40;54.80;;;13.19;56.31;99500.38;12247682;19;19936;-90
2023/04/01 06:37:59;;;;;;;;;;;14.40;54.80;;;13.23;56.31;99500.91;12246112;19;19978;-89
2023/04/01 06:42:40;;;;;;;;;;;14.40;54.80;;;13.16;56.41;99495.38;12242795;19;19992;-90
2023/04/01 06:47:10;;;;;;;;;;;14.50;54.90;;;13.17;56.40;99497.03;12238679;19;20349;-89
2023/04/01 06:52:05;;;;;;;;;;;14.50;54.90;;;13.22;56.42;99509.75;12245595;19;19987;-90
2023/04/01 06:56:28;;;;;;;;;;;14.50;54.90;;;13.28;56.34;99510.09;12248337;19;19923;-90
2023/04/01 07:00:40;;;;;;;;;;;14.50;54.90;;;13.30;56.39;99514.38;12246110;19;20245;-91
2023/04/01 07:04:54;;;;;;;;;;;14.50;54.90;;;13.17;56.62;99497.03;12242252;19;20636;-91
2023/04/01 07:09:00;;;;;;;;;;;14.50;54.90;;;13.28;56.44;99511.88;12243265;19;20401;-90
2023/04/01 07:13:27;;;;;;;;;;;14.60;54.90;;;13.31;56.54;99513.41;12247755;19;19998;-91
2023/04/01 07:17:35;;;;;;;;;;;14.60;55.00;;;13.24;56.44;99508.66;12243996;19;19987;-91
2023/04/01 07:21:48;;;;;;;;;;;14.60;55.00;;;13.37;56.22;99526.84;12240019;19;19933;-91
2023/04/01 07:26:14;;;;;;;;;;;14.60;55.00;;;13.36;56.45;99522.53;12245771;19;19930;-91
2023/04/01 07:31:05;;;;;;;;;;;14.60;55.00;;;13.33;56.60;99524.59;12245592;19;19926;-91
2023/04/01 07:35:13;;;;;;;;;;;14.60;55.10;;;13.40;56.46;99537.06;12243673;19;19930;-88
2023/04/01 07:39:45;;;;;;;;;;;14.60;55.10;;;13.43;56.44;99535.97;12246164;19;19944;-90
2023/04/01 07:43:50;;;;;;;;;;;14.60;55.10;;;13.45;56.57;99534.88;12257066;19;20414;-90
2023/04/01 07:48:21;;;;;;;;;;;14.70;55.20;;;13.43;56.60;99533.34;12254486;19;19914;-90
2023/04/01 07:53:02;;;;;;;;;;;14.70;55.20;;;13.53;56.63;99533.34;12258430;19;19931;-90
2023/04/01 07:57:31;;;;;;;;;;;14.70;55.30;;;13.55;56.66;99541.94;12255959;19;19915;-90
2023/04/01 08:02:21;;;;;;;;;;;14.80;55.30;;;13.57;56.55;99548.69;12257953;19;19926;-91
2023/04/01 08:06:42;;;;;;;;;;;14.80;55.40;;;13.62;56.60;99549.13;12253928;19;19974;-92
2023/04/01 08:11:06;;;;;;;;;;;14.80;55.40;;;13.65;56.68;99556.75;12255159;19;19915;-92
2023/04/01 08:15:58;;;;;;;;;;;14.90;55.50;;;13.59;56.72;99545.97;12254965;19;19911;-91
2023/04/01 08:20:17;;;;;;;;;;;14.90;55.40;;;13.72;56.64;99567.53;12253647;19;19923;-90
2023/04/01 08:24:42;;;;;;;;;;;14.90;55.50;;;13.72;56.77;99567.53;12255380;19;19983;-89
2023/04/01 08:29:05;;;;;;;;;;;15.00;55.40;;;13.75;56.54;99571.69;12251977;19;19922;-90
2023/04/01 08:33:19;;;;;;;;;;;15.00;55.40;;;13.68;56.82;99560.88;12249454;19;20340;-90
2023/04/01 08:37:30;;;;;;;;;;;15.00;55.50;;;13.76;56.78;99566.31;12251738;19;20276;-91
2023/04/01 08:41:45;;;;;;;;;;;15.00;55.50;;;13.82;56.65;99581.50;12252917;19;20541;-90
2023/04/01 08:46:18;;;;;;;;;;;15.10;55.50;;;13.77;56.64;99575.00;12249605;19;19948;-90
2023/04/01 08:50:31;;;;;;;;;;;15.00;55.50;;;13.86;56.67;99587.34;12248926;19;19915;-91
2023/04/01 08:55:29;;;;;;;;;;;15.00;55.50;;;13.77;56.68;99575.00;12254733;19;19939;-91
2023/04/01 09:00:21;;;;;;;;;;;15.10;55.50;;;13.86;56.79;99575.03;12244287;19;19934;-90
2023/04/01 09:05:17;;;;;;;;;;;15.10;55.50;;;13.93;56.71;99598.94;12251714;19;19915;-90
2023/04/01 09:09:42;;;;;;;;;;;15.20;55.60;;;13.96;56.68;99588.19;12250249;19;19919;-89
2023/04/01 09:14:10;;;;;;;;;;;15.20;55.70;;;13.91;56.72;99595.63;12253523;19;19928;-90
2023/04/01 09:18:29;;;;;;;;;;;15.20;56.00;;;13.78;56.88;99589.78;12250924;19;19911;-89
2023/04/01 09:22:43;;;;;;;;;;;15.20;55.70;;;13.81;56.78;99607.88;12252680;19;20240;-90
2023/04/01 09:27:00;;;;;;;;;;;15.10;56.00;;;13.72;56.68;99614.78;12251600;19;19950;-89
2023/04/01 09:31:20;;;;;;;;;;;15.00;55.20;;;13.59;56.82;99609.75;12252360;19;20294;-90
2023/04/01 09:35:55;;;;;;;;;;;14.90;55.50;;;13.53;56.83;99630.41;12250638;19;19934;-89
2023/04/01 09:40:18;;;;;;;;;;;14.80;55.70;;;13.49;56.90;99632.47;12249001;19;19915;-90
2023/04/01 09:44:31;;;;;;;;;;;14.80;55.80;;;13.47;56.97;99639.63;12249223;19;20008;-90
2023/04/01 09:49:12;;;;;;;;;;;14.70;55.80;;;13.41;56.99;99653.25;12249417;19;19963;-89
2023/04/01 09:53:44;;;;;;;;;;;14.60;55.80;;;13.22;57.09;99633.78;12250871;19;19937;-90
2023/04/01 09:58:03;;;;;;;;;;;14.60;55.80;;;13.28;56.89;99653.44;12248855;19;20230;-90
2023/04/01 10:02:33;;;;;;;;;;;14.50;55.70;;;13.25;56.96;99651.88;12248960;19;19923;-90
2023/04/01 10:07:25;;;;;;;;;;;14.50;56.10;;;13.21;57.00;99660.97;12249056;19;19923;-90
2023/04/01 10:11:52;;;;;;;;;;;14.40;55.80;;;13.17;56.99;99667.44;12249640;19;19931;-92
2023/04/01 10:16:08;;;;;;;;;;;14.40;56.00;;;13.13;57.02;99673.91;12249459;19;19911;-91
2023/04/01 10:20:31;;;;;;;;;;;14.30;55.80;;;13.12;56.99;99679.25;12248446;19;19915;-91
2023/04/01 10:25:12;;;;;;;;;;;14.30;55.80;;;12.86;56.94;99636.88;12250056;19;20241;-90
2023/04/01 10:29:33;;;;;;;;;;;14.30;56.30;;;13.06;57.06;99681.41;12244399;19;19998;-91
2023/04/01 10:33:46;;;;;;;;;;;14.30;56.00;;;13.06;57.03;99677.97;12242573;19;19991;-92
2023/04/01 10:38:00;;;;;;;;;;;14.20;55.70;;;12.99;57.01;99679.44;12241469;19;19939;-92
2023/04/01 10:42:27;;;;;;;;;;;14.20;56.30;;;12.94;56.98;99681.63;12244911;19;20350;-92
2023/04/01 10:47:22;;;;;;;;;;;14.10;56.00;;;12.92;57.08;99688.75;12246425;19;19938;-90
2023/04/01 10:51:46;;;;;;;;;;;14.10;55.90;;;12.93;57.02;99693.03;12248179;19;19915;-90
2023/04/01 10:56:10;;;;;;;;;;;14.10;56.20;;;12.82;57.09;99673.78;12247630;19;19946;-90
2023/04/01 11:01:04;;;;;;;;;;;14.10;56.10;;;12.89;57.10;99694.25;12248488;19;19975;-90
2023/04/01 11:05:53;;;;;;;;;;;14.10;55.60;;;12.80;57.01;99694.06;12246676;19;19922;-90
2023/04/01 11:10:20;;;;;;;;;;;14.00;55.80;;;12.80;57.11;99701.09;12245673;19;19915;-90
2023/04/01 11:14:52;;;;;;;;;;;14.00;55.40;;;12.62;56.91;99690.28;12249994;19;19919;-89
2023/04/01 11:19:38;;;;;;;;;;;14.00;55.70;;;12.72;57.16;99706.94;12254679;19;19986;-89
2023/04/01 11:24:13;;;;;;;;;;;14.00;55.70;;;12.61;57.11;99713.03;12258887;19;19926;-90
2023/04/01 11:28:37;;;;;;;;;;;13.90;55.40;;;12.55;57.29;99721.38;12252533;19;19932;-90
2023/04/01 11:33:11;;;;;;;;;;;13.80;55.60;;;12.52;57.15;99721.59;12259029;19;19919;-88
2023/04/01 11:37:45;;;;;;;;;;;13.80;55.80;;;12.48;57.19;99735.91;12255549;19;19926;-91
2023/04/01 11:42:18;;;;;;;;;;;13.70;55.90;;;12.48;57.26;99735.09;12260133;19;19922;-89
2023/04/01 11:47:03;;;;;;;;;;;13.70;56.70;;;12.36;57.33;99734.25;12254074;19;19944;-90
2023/04/01 11:51:29;;;;;;;;;;;13.60;56.00;;;12.34;57.38;99749.25;12252629;19;19919;-89
2023/04/01 11:55:52;;;;;;;;;;;13.60;55.80;;;12.33;57.29;99756.25;12257061;19;19953;-89
2023/04/01 11:59:59;;;;;;;;;;;13.60;55.80;;;12.25;57.24;99770.91;12255141;19;19915;-88
2023/04/01 12:04:32;;;;;;;;;;;13.50;55.20;;;12.16;57.49;99770.66;12258983;19;19964;-88
2023/04/01 12:09:04;;;;;;;;;;;13.50;55.30;;;12.04;57.44;99761.13;12253568;19;19919;-89
2023/04/01 12:13:24;;;;;;;;;;;13.50;55.60;;;11.92;57.74;99757.69;12257213;19;20377;-89
2023/04/01 12:17:47;;;;;;;;;;;13.30;55.70;;;12.03;57.56;99780.41;12253056;19;19934;-89
2023/04/01 12:22:24;;;;;;;;;;;13.30;55.80;;;11.97;57.37;99782.69;12256327;19;19919;-89
2023/04/01 12:27:04;;;;;;;;;;;13.30;55.70;;;11.96;57.62;99792.28;12246673;19;19948;-89
2023/04/01 12:31:18;;;;;;;;;;;13.20;55.90;;;11.97;57.57;99796.59;12254390;19;19911;-89
2023/04/01 12:35:42;;;;;;;;;;;13.20;56.60;;;11.74;57.68;99759.03;12255053;19;19919;-90
2023/04/01 12:39:53;;;;;;;;;;;13.20;56.40;;;11.98;57.58;99806.09;12250424;19;20262;-90
2023/04/01 12:44:07;;;;;;;;;;;13.10;55.80;;;11.96;57.35;99807.97;12255905;19;19915;-90
2023/04/01 12:48:33;;;;;;;;;;;13.20;55.90;;;11.91;57.39;99813.59;12240823;19;19943;-91
2023/04/01 12:52:38;;;;;;;;;;;13.20;55.70;;;11.73;57.60;99801.84;12254874;19;19982;-90
2023/04/01 12:56:46;;;;;;;;;;;13.20;56.10;;;11.61;57.62;99789.69;12255033;19;20337;-90
2023/04/01 13:01:30;;;;;;;;;;;13.10;55.90;;;11.87;57.49;99833.06;12253846;19;19927;-90
2023/04/01 13:05:49;;;;;;;;;;;13.10;56.00;;;11.86;57.83;99836.63;12251531;19;19935;-91
2023/04/01 13:10:18;;;;;;;;;;;13.00;56.00;;;11.74;57.60;99827.88;12251322;19;19914;-91
2023/04/01 13:14:32;;;;;;;;;;;13.00;55.90;;;11.78;57.52;99846.81;12254113;19;19989;-91
2023/04/01 13:18:52;;;;;;;;;;;13.00;55.60;;;11.73;57.53;99857.59;12252215;19;19922;-91
2023/04/01 13:23:18;;;;;;;;;;;13.00;55.90;;;11.72;57.55;99849.88;12254745;19;19934;-91
2023/04/01 13:27:50;;;;;;;;;;;13.00;55.90;;;11.69;57.62;99856.19;12249571;19;20318;-90
2023/04/01 13:32:33;;;;;;;;;;;13.00;55.80;;;11.69;57.65;99863.16;12250917;19;19977;-91
2023/04/01 13:36:57;;;;;;;;;;;12.90;55.90;;;11.69;57.61;99865.78;12243529;19;20588;-89
2023/04/01 13:41:25;;;;;;;;;;;12.90;55.80;;;11.61;57.75;99862.91;12251335;19;19943;-89
2023/04/01 13:45:47;;;;;;;;;;;12.90;56.10;;;11.61;57.68;99874.22;12249022;19;20255;-89
2023/04/01 13:50:22;;;;;;;;;;;12.90;55.90;;;11.49;57.65;99859.41;12247423;19;19919;-89
2023/04/01 13:54:53;;;;;;;;;;;12.90;55.90;;;11.47;57.63;99876.97;12249346;19;19914;-89
2023/04/01 13:59:07;;;;;;;;;;;12.80;55.40;;;11.48;57.68;99889.94;12246715;19;19918;-89
2023/04/01 14:03:59;;;;;;;;;;;12.70;56.00;;;11.37;57.89;99871.59;12254200;19;19915;-89
2023/04/01 14:08:20;;;;;;;;;;;12.70;56.10;;;11.44;57.85;99892.91;12247159;19;19915;-89
2023/04/01 14:12:58;;;;;;;;;;;12.70;56.20;;;11.30;57.81;99880.81;12252100;19;19918;-89
2023/04/01 14:17:18;;;;;;;;;;;12.70;56.10;;;11.40;57.73;99912.38;12250829;19;19914;-89
2023/04/01 14:21:39;;;;;;;;;;;12.70;55.50;;;11.39;57.77;99910.69;12252375;19;19923;-89
2023/04/01 14:25:56;;;;;;;;;;;12.70;55.90;;;11.40;57.82;99921.03;12249913;19;19949;-88
2023/04/01 14:30:00;;;;;;;;;;;12.70;56.10;;;11.07;57.82;99862.41;12247080;19;20264;-88
2023/04/01 14:34:29;;;;;;;;;;;12.70;56.10;;;11.45;57.90;99931.16;12245155;19;21889;-89
2023/04/01 14:38:50;;;;;;;;;;;12.70;56.20;;;11.43;57.76;99933.06;12229229;19;19918;-89
2023/04/01 14:43:29;;;;;;;;;;;12.70;55.90;;;11.38;57.72;99938.59;12250640;19;19964;-88
2023/04/01 14:47:44;;;;;;;;;;;12.70;56.00;;;11.22;57.84;99922.34;12247022;19;19923;-88
2023/04/01 14:51:46;;;;;;;;;;;12.70;55.80;;;11.21;57.86;99936.38;12248989;19;19931;-88
2023/04/01 14:55:52;;;;;;;;;;;12.60;55.70;;;11.14;58.13;99935.94;12249477;19;19930;-88
2023/04/01 15:00:21;;;;;;;;;;;12.60;56.30;;;11.23;58.00;99963.22;12244797;19;19923;-87
2023/04/01 15:04:46;;;;;;;;;;;12.50;55.80;;;11.21;58.01;99971.19;12247458;19;20268;-88
2023/04/01 15:09:06;;;;;;;;;;;12.50;56.00;;;11.10;57.82;99971.09;12246259;19;19915;-89
2023/04/01 15:13:11;;;;;;;;;;;12.50;55.80;;;11.10;57.85;99973.72;12242615;19;19922;-89
2023/04/01 15:17:12;;;;;;;;;;;12.40;55.80;;;11.07;58.09;99982.59;12249204;19;19949;-89
2023/04/01 15:21:48;;;;;;;;;;;12.40;56.10;;;10.96;58.04;99977.25;12248115;19;19918;-89
2023/04/01 15:26:17;;;;;;;;;;;12.40;55.70;;;10.91;58.04;99988.94;12247693;19;19918;-89
2023/04/01 15:30:32;;;;;;;;;;;12.30;56.30;;;10.88;58.18;99997.84;12246256;19;20299;-90
2023/04/01 15:34:42;;;;;;;;;;;12.20;56.20;;;10.54;58.06;99950.53;12248662;19;19923;-89
2023/04/01 15:38:49;;;;;;;;;;;12.20;56.10;;;10.78;58.03;99999.41;12243612;19;19914;-90
2023/04/01 15:43:06;;;;;;;;;;;12.20;56.20;;;10.85;58.26;100006.75;12243645;19;19915;-90
2023/04/01 15:47:25;;;;;;;;;;;12.20;55.70;;;10.88;58.02;100020.50;12244188;19;19933;-90
2023/04/01 15:51:49;;;;;;;;;;;12.20;55.80;;;10.83;58.02;100032.13;12246078;19;19929;-89
2023/04/01 15:56:09;;;;;;;;;;;12.20;56.00;;;10.82;58.17;100034.81;12246220;19;19919;-90
2023/04/01 16:00:32;;;;;;;;;;;12.10;56.10;;;10.65;57.96;100024.69;12249473;19;19915;-90
2023/04/01 16:04:37;;;;;;;;;;;12.10;56.10;;;10.71;58.18;100032.09;12252340;19;19927;-89
2023/04/01 16:08:53;;;;;;;;;;;12.00;56.10;;;10.64;57.97;100039.53;12253151;19;19922;-90
2023/04/01 16:13:32;;;;;;;;;;;12.00;55.90;;;10.57;57.86;100053.91;12257964;19;20400;-90
2023/04/01 16:17:46;;;;;;;;;;;11.90;55.30;;;10.49;58.18;100059.63;12252688;19;19926;-90
2023/04/01 16:21:57;;;;;;;;;;;11.90;55.60;;;10.43;58.14;100067.88;12254732;19;19939;-90
2023/04/01 16:26:43;;;;;;;;;;;11.80;55.80;;;10.37;58.07;100074.31;12246924;19;20265;-89
2023/04/01 16:30:58;;;;;;;;;;;11.80;55.70;;;10.20;58.37;100067.53;12227880;19;19934;-89
2023/04/01 16:35:14;;;;;;;;;;;11.70;55.80;;;10.26;58.13;100081.97;12242695;19;20007;-89
2023/04/01 16:39:29;;;;;;;;;;;11.70;55.90;;;10.31;58.19;100084.31;12234142;19;19923;-90
2023/04/01 16:44:02;;;;;;;;;;;11.70;56.00;;;10.37;58.15;100108.25;12249409;19;19915;-90
2023/04/01 16:48:17;;;;;;;;;;;11.70;56.00;;;10.33;58.28;100113.75;12248525;19;19960;-90
2023/04/01 16:53:04;;;;;;;;;;;11.60;55.80;;;10.34;58.07;100123.25;12255517;19;20324;-90
2023/04/01 16:57:09;;;;;;;;;;;11.60;55.90;;;10.35;58.21;100138.00;12233034;19;19915;-87
2023/04/01 17:01:22;;;;;;;;;;;11.60;55.80;;;10.07;58.27;100097.97;12251912;19;20559;-87
2023/04/01 17:06:03;;;;;;;;;;;11.60;55.80;;;10.30;58.10;100147.88;12235183;19;20089;-90
2023/04/01 17:10:23;;;;;;;;;;;11.60;55.80;;;10.23;58.03;100159.59;12239727;19;19932;-87
2023/04/01 17:14:37;;;;;;;;;;;11.60;55.60;;;10.16;58.11;100161.78;12245796;19;20349;-89
2023/04/01 17:18:50;;;;;;;;;;;11.50;56.10;;;9.98;58.02;100156.75;12279185;19;19918;-90
2023/04/01 17:23:18;;;;;;;;;;;11.50;55.90;;;10.02;58.12;100185.25;12255275;19;19915;-90
2023/04/01 17:27:48;;;;;;;;;;;11.40;55.60;;;9.77;58.17;100155.47;12248626;19;19935;-88
2023/04/01 17:32:03;;;;;;;;;;;11.40;55.60;;;9.96;58.10;100196.91;12252381;19;19927;-88
2023/04/01 17:36:16;;;;;;;;;;;11.30;55.60;;;9.91;58.13;100204.16;12251028;19;20381;-88
2023/04/01 17:40:42;;;;;;;;;;;11.20;55.40;;;9.82;58.33;100202.13;12250436;19;19915;-89
2023/04/01 17:44:56;;;;;;;;;;;11.20;55.50;;;9.81;58.32;100222.16;12248770;19;19927;-89
2023/04/01 17:49:00;;;;;;;;;;;11.20;55.50;;;9.74;58.03;100229.50;12249072;19;19978;-88
2023/04/01 17:53:04;;;;;;;;;;;11.10;55.40;;;9.69;58.21;100239.38;12252483;19;19926;-89
2023/04/01 17:57:43;;;;;;;;;;;11.10;55.40;;;9.60;58.28;100247.72;12249673;19;19918;-89
2023/04/01 18:01:57;;;;;;;;;;;11.00;55.40;;;9.54;58.07;100250.69;12249674;19;19919;-89
2023/04/01 18:06:25;;;;;;;;;;;10.90;55.40;;;9.37;58.24;100248.22;12250712;19;20333;-90
2023/04/01 18:10:55;;;;;;;;;;;10.90;55.30;;;9.31;58.42;100258.06;12249358;19;20282;-89
2023/04/01 18:15:00;;;;;;;;;;;10.80;55.40;;;9.31;58.14;100276.31;12250930;19;19914;-89
2023/04/01 18:19:09;;;;;;;;;;;10.80;55.40;;;9.30;58.32;100279.84;12229945;19;19927;-90
2023/04/01 18:23:16;;;;;;;;;;;10.70;55.40;;;9.28;58.23;100286.91;12230538;19;19930;-89
2023/04/01 18:27:23;;;;;;;;;;;10.60;55.60;;;9.22;58.47;100287.25;12227575;19;20347;-90
2023/04/01 18:31:32;;;;;;;;;;;10.60;55.60;;;9.06;58.10;100278.63;12229595;19;20313;-90
2023/04/01 18:35:52;;;;;;;;;;;10.60;55.60;;;9.23;58.00;100316.75;12229200;19;19941;-89
2023/04/01 18:40:26;;;;;;;;;;;10.60;55.40;;;9.15;58.23;100337.19;12226743;19;19919;-89
2023/04/01 18:44:50;;;;;;;;;;;10.50;55.60;;;9.00;58.22;100334.50;12227830;19;19923;-90
2023/04/01 18:49:11;;;;;;;;;;;10.50;55.10;;;8.84;58.38;100333.66;12240721;19;19926;-90
2023/04/01 18:53:39;;;;;;;;;;;10.40;55.10;;;8.86;58.39;100363.06;12258735;19;19923;-90
2023/04/01 18:57:58;;;;;;;;;;;10.30;55.30;;;8.64;58.43;100352.94;12258019;19;19919;-90
2023/04/01 19:02:30;;;;;;;;;;;10.30;55.10;;;8.70;58.36;100370.88;12254368;19;19918;-89
2023/04/01 19:06:52;;;;;;;;;;;10.20;55.10;;;8.53;58.32;100355.28;12242386;19;19918;-89
2023/04/01 19:11:08;;;;;;;;;;;10.10;55.10;;;8.56;58.50;100378.53;12246007;19;19919;-89
2023/04/01 19:15:48;;;;;;;;;;;10.00;55.40;;;8.37;58.39;100350.88;12246127;19;19923;-89
2023/04/01 19:20:08;;;;;;;;;;;10.00;55.50;;;8.54;58.61;100385.59;12240481;19;19922;-89
2023/04/01 19:24:40;;;;;;;;;;;9.90;55.40;;;8.52;58.35;100396.09;12246190;19;19915;-90
2023/04/01 19:28:50;;;;;;;;;;;9.90;55.40;;;8.51;58.23;100402.22;12241719;19;19919;-89
2023/04/01 19:33:10;;;;;;;;;;;9.90;55.40;;;8.43;58.34;100403.53;12247500;19;19932;-89